< Typhoon 196306 1963 Season Typhoon 196308 >
Typhoon 196307 (WENDY)
General InformationTrack Information on Google Maps || Disaster Info.ResourceGoogle EarthGE AnimationAtom FeedGeoJSON
Detalied Best Track (Time Zone = UTC)
Year Month Day Hour Lat. Long. Pressure (hPa) Wind (kt) Class Image Chart
1963 7 9 00 15.0 149.1 1010 0 2 -- Chart
1963 7 9 06 14.8 148.4 1008 0 2 -- Chart
1963 7 9 12 14.5 147.5 1005 0 2 -- Chart
1963 7 9 18 14.0 147.0 1001 0 2 -- Chart
1963 7 10 00 13.3 146.5 995 0 9 -- Chart
1963 7 10 06 12.8 146.3 992 0 9 -- Chart
1963 7 10 12 12.3 145.8 990 0 9 -- Chart
1963 7 10 18 12.0 145.4 980 0 9 -- Chart
1963 7 11 00 11.9 144.9 965 0 9 -- Chart
1963 7 11 06 12.1 144.2 945 0 9 -- Chart
1963 7 11 12 12.3 143.6 945 0 9 -- Chart
1963 7 11 18 13.2 142.6 945 0 9 -- Chart
1963 7 12 00 14.2 141.7 945 0 9 -- Chart
1963 7 12 06 15.0 140.6 945 0 9 -- Chart
1963 7 12 12 16.0 139.7 945 0 9 -- Chart
1963 7 12 18 16.7 138.5 940 0 9 -- Chart
1963 7 13 00 17.3 137.5 935 0 9 -- Chart
1963 7 13 06 17.8 136.3 935 0 9 -- Chart
1963 7 13 12 18.3 134.7 935 0 9 -- Chart
1963 7 13 18 19.0 133.4 935 0 9 -- Chart
1963 7 14 00 19.5 131.9 935 0 9 -- Chart
1963 7 14 06 19.9 130.3 930 0 9 -- Chart
1963 7 14 12 20.3 129.3 930 0 9 -- Chart
1963 7 14 18 20.4 127.9 930 0 9 -- Chart
1963 7 15 00 20.7 126.3 930 0 9 -- Chart
1963 7 15 06 21.2 125.3 930 0 9 -- Chart
1963 7 15 12 21.6 124.1 930 0 9 -- Chart
1963 7 15 18 22.6 123.1 935 0 9 -- Chart
1963 7 16 00 23.6 122.2 940 0 9 -- Chart
1963 7 16 06 24.4 121.4 950 0 9 -- Chart
1963 7 16 12 25.0 120.9 970 0 9 -- Chart
1963 7 16 18 25.8 120.2 975 0 9 -- Chart
1963 7 17 00 26.5 119.3 985 0 9 -- Chart
1963 7 17 06 27.1 118.9 990 0 9 -- Chart
1963 7 17 12 27.8 118.2 992 0 9 -- Chart
1963 7 17 18 28.3 117.5 993 0 9 -- Chart
1963 7 18 00 29.3 117.0 994 0 9 -- Chart
1963 7 18 06 29.5 116.5 994 0 2 -- Chart
1963 7 18 12 30.8 116.0 995 0 2 -- Chart
1963 7 18 18 31.5 115.8 995 0 2 -- Chart
1963 7 19 00 32.5 116.0 996 0 2 -- Chart
1963 7 19 06 33.4 116.0 998 0 2 -- Chart
1963 7 19 12 34.6 116.5 998 0 2 -- Chart
1963 7 19 18 36.0 117.0 1000 0 2 -- Chart
1963 7 20 00 37.8 118.2 999 0 2 -- Chart
1963 7 20 06 39.9 119.8 999 0 6 -- Chart
1963 7 20 12 42.5 121.8 1000 0 6 -- Chart
1963 7 20 18 45.5 124.5 998 0 6 -- Chart
1963 7 21 00 47.0 127.0 996 0 6 -- Chart
1963 7 21 06 47.5 128.5 994 0 6 -- Chart
1963 7 21 12 48.2 130.2 992 0 6 -- Chart
1963 7 21 18 48.5 131.5 992 0 6 -- Chart
1963 7 22 00 48.8 133.0 994 0 6 -- Chart
1963 7 22 06 49.0 134.8 996 0 6 -- Chart
1963 7 22 12 48.8 137.0 999 0 6 -- Chart
1963 7 22 18 48.6 139.0 1002 0 6 -- Chart
1963 7 23 00 48.0 143.4 1005 0 6 -- Chart
1963 7 23 06 47.7 145.2 1008 0 6 -- Chart
1963 7 23 12 48.0 147.0 1008 0 6 -- Chart
1963 7 23 18 48.5 147.8 1010 0 6 -- Chart
1963 7 24 00 49.2 148.2 1010 0 6 -- Chart
1963 7 24 06 50.0 148.1 1008 0 6 -- Chart
Japan Meteorological Agency Best Track Data | Correction Date : 2013-03-19
< Typhoon 196306 1963 Season Typhoon 196308 >

Help